Time;durP1;ratioP1;P1;durP2;ratioP2;P2;SDS_P1;SDS_P2;PMS_P1;PMS_P2;Temp;Humidity;BMP_temperature;BMP_pressure;BME280_temperature;BME280_humidity;BME280_pressure;Samples;Min_cycle;Max_cycle;Signal;HPM_P1;HPM_P2
2021/03/29 00:00:05;;;;;;;6.70;3.87;;;;;;;;;;5107583;28;20722;-76
2021/03/29 00:02:33;;;;;;;9.40;4.33;;;;;;;;;;5109310;28;20242;-74
2021/03/29 00:05:00;;;;;;;8.23;4.23;;;;;;;;;;5109160;28;20251;-74
2021/03/29 00:07:29;;;;;;;7.27;4.10;;;;;;;;;;5108887;28;20293;-74
2021/03/29 00:09:56;;;;;;;7.50;4.73;;;;;;;;;;5111507;28;20217;-75
2021/03/29 00:12:25;;;;;;;5.73;4.03;;;;;;;;;;5109830;28;20232;-76
2021/03/29 00:14:52;;;;;;;7.53;4.27;;;;;;;;;;5108507;28;20300;-75
2021/03/29 00:17:20;;;;;;;6.80;4.03;;;;;;;;;;5116143;28;20201;-73
2021/03/29 00:19:47;;;;;;;8.23;4.53;;;;;;;;;;5116845;28;20189;-73
2021/03/29 00:22:14;;;;;;;6.27;4.77;;;;;;;;;;5117671;28;20200;-73
2021/03/29 00:24:42;;;;;;;7.47;4.77;;;;;;;;;;5120439;28;20224;-76
2021/03/29 00:27:10;;;;;;;4.97;4.23;;;;;;;;;;5115326;28;20202;-77
2021/03/29 00:29:37;;;;;;;6.83;4.27;;;;;;;;;;5118622;28;20644;-76
2021/03/29 00:32:05;;;;;;;6.80;4.57;;;;;;;;;;5117016;28;20236;-76
2021/03/29 00:34:32;;;;;;;6.77;4.50;;;;;;;;;;5114121;28;20221;-77
2021/03/29 00:37:01;;;;;;;9.47;4.50;;;;;;;;;;5116421;28;20247;-74
2021/03/29 00:39:29;;;;;;;7.43;4.37;;;;;;;;;;5116224;28;20197;-74
2021/03/29 00:41:57;;;;;;;4.63;3.40;;;;;;;;;;5114860;28;20633;-75
2021/03/29 00:44:24;;;;;;;8.77;4.07;;;;;;;;;;5116670;28;20220;-75
2021/03/29 00:46:51;;;;;;;7.87;4.30;;;;;;;;;;5114836;28;20716;-73
2021/03/29 00:49:18;;;;;;;7.03;4.60;;;;;;;;;;5111524;28;20209;-75
2021/03/29 00:51:46;;;;;;;7.80;3.90;;;;;;;;;;5114131;27;20233;-75
2021/03/29 00:54:13;;;;;;;6.43;3.97;;;;;;;;;;5112093;28;20648;-75
2021/03/29 00:56:41;;;;;;;7.67;4.20;;;;;;;;;;5116743;28;20208;-74
2021/03/29 00:59:09;;;;;;;8.27;4.17;;;;;;;;;;5116343;28;20197;-76
2021/03/29 01:01:38;;;;;;;9.67;5.03;;;;;;;;;;5116822;28;20558;-75
2021/03/29 01:04:06;;;;;;;7.57;4.20;;;;;;;;;;5117605;28;20581;-74
2021/03/29 01:06:35;;;;;;;6.93;4.57;;;;;;;;;;5112879;28;20200;-74
2021/03/29 01:09:05;;;;;;;6.37;4.80;;;;;;;;;;5113763;28;20292;-74
2021/03/29 01:11:34;;;;;;;7.93;4.20;;;;;;;;;;5118727;28;20628;-74
2021/03/29 01:14:03;;;;;;;9.10;4.70;;;;;;;;;;5113055;28;20213;-74
2021/03/29 01:16:33;;;;;;;8.60;4.60;;;;;;;;;;5114452;28;20254;-73
2021/03/29 01:19:01;;;;;;;8.73;5.20;;;;;;;;;;5118249;28;20200;-75
2021/03/29 01:21:40;;;;;;;6.93;4.03;;;;;;;;;;5117513;28;20201;-76
2021/03/29 01:24:16;;;;;;;6.20;4.50;;;;;;;;;;5119829;28;20211;-75
2021/03/29 01:26:44;;;;;;;11.57;4.60;;;;;;;;;;5120006;28;20201;-73
2021/03/29 01:29:12;;;;;;;8.33;4.73;;;;;;;;;;5118619;28;20293;-74
2021/03/29 01:31:40;;;;;;;7.20;3.87;;;;;;;;;;5102591;28;20209;-75
2021/03/29 01:34:07;;;;;;;4.13;3.10;;;;;;;;;;5100097;28;20220;-75
2021/03/29 01:36:34;;;;;;;5.53;4.00;;;;;;;;;;5101170;28;20297;-74
2021/03/29 01:39:02;;;;;;;10.57;3.83;;;;;;;;;;5099455;28;20288;-75
2021/03/29 01:41:29;;;;;;;6.83;3.63;;;;;;;;;;5099258;28;20250;-75
2021/03/29 01:43:57;;;;;;;4.57;3.50;;;;;;;;;;5099262;28;20209;-75
2021/03/29 01:46:24;;;;;;;6.57;3.80;;;;;;;;;;5104486;28;20687;-74
2021/03/29 01:48:51;;;;;;;8.00;3.57;;;;;;;;;;5099431;28;20241;-75
2021/03/29 01:51:18;;;;;;;6.17;3.77;;;;;;;;;;5099094;28;20292;-75
2021/03/29 01:53:46;;;;;;;6.07;3.90;;;;;;;;;;5111514;28;20284;-75
2021/03/29 01:56:13;;;;;;;8.87;3.80;;;;;;;;;;5119293;28;20263;-75
2021/03/29 01:58:40;;;;;;;8.27;4.10;;;;;;;;;;5119422;28;20288;-75
2021/03/29 02:01:10;;;;;;;6.00;3.57;;;;;;;;;;5119604;28;20213;-75
2021/03/29 02:03:37;;;;;;;7.53;3.83;;;;;;;;;;5119570;28;20287;-75
2021/03/29 02:06:05;;;;;;;6.20;3.63;;;;;;;;;;5119230;27;20224;-74
2021/03/29 02:08:32;;;;;;;7.23;3.87;;;;;;;;;;5119598;28;20288;-75
2021/03/29 02:10:59;;;;;;;5.57;3.73;;;;;;;;;;5119379;28;20306;-74
2021/03/29 02:13:27;;;;;;;7.07;4.50;;;;;;;;;;5119030;28;20234;-74
2021/03/29 02:15:56;;;;;;;4.80;3.50;;;;;;;;;;5119279;28;20249;-75
2021/03/29 02:18:26;;;;;;;6.93;4.00;;;;;;;;;;5119005;28;20296;-75
2021/03/29 02:20:54;;;;;;;6.17;4.03;;;;;;;;;;5119087;28;20201;-75
2021/03/29 02:23:21;;;;;;;6.40;3.57;;;;;;;;;;5119203;28;20236;-75
2021/03/29 02:25:49;;;;;;;4.43;3.87;;;;;;;;;;5119129;28;20228;-75
2021/03/29 02:28:17;;;;;;;6.57;4.20;;;;;;;;;;5118759;28;20736;-75
2021/03/29 02:30:45;;;;;;;7.17;3.67;;;;;;;;;;5110070;28;20269;-75
2021/03/29 02:33:13;;;;;;;6.27;4.50;;;;;;;;;;5098627;28;20288;-75
2021/03/29 02:35:41;;;;;;;7.90;4.70;;;;;;;;;;5103312;28;20289;-75
2021/03/29 02:38:11;;;;;;;6.67;4.00;;;;;;;;;;5098250;28;20725;-75
2021/03/29 02:40:39;;;;;;;5.23;3.90;;;;;;;;;;5098295;28;20293;-75
2021/03/29 02:43:07;;;;;;;7.83;4.80;;;;;;;;;;5098133;28;20244;-75
2021/03/29 02:45:36;;;;;;;8.20;4.00;;;;;;;;;;5101566;28;20308;-76
2021/03/29 02:48:05;;;;;;;7.60;4.47;;;;;;;;;;5101209;28;20258;-74
2021/03/29 02:50:33;;;;;;;6.60;4.50;;;;;;;;;;5098379;28;20312;-75
2021/03/29 02:53:04;;;;;;;7.03;4.53;;;;;;;;;;5104048;28;20201;-75
2021/03/29 02:55:32;;;;;;;6.93;4.10;;;;;;;;;;5118710;28;20246;-75
2021/03/29 02:58:00;;;;;;;8.03;4.23;;;;;;;;;;5117986;28;20231;-75
2021/03/29 03:00:27;;;;;;;6.27;4.40;;;;;;;;;;5118611;28;20225;-74
2021/03/29 03:02:56;;;;;;;9.10;4.50;;;;;;;;;;5118639;28;20293;-73
2021/03/29 03:05:24;;;;;;;5.90;4.47;;;;;;;;;;5118149;28;20602;-72
2021/03/29 03:07:51;;;;;;;5.53;4.40;;;;;;;;;;5118538;28;20288;-74
2021/03/29 03:10:20;;;;;;;5.23;4.23;;;;;;;;;;5118108;28;20814;-73
2021/03/29 03:12:47;;;;;;;4.80;3.63;;;;;;;;;;5118098;28;20228;-73
2021/03/29 03:15:17;;;;;;;4.67;3.73;;;;;;;;;;5118293;28;20311;-72
2021/03/29 03:17:44;;;;;;;6.47;4.10;;;;;;;;;;5118189;28;20579;-73
2021/03/29 03:20:12;;;;;;;5.47;4.17;;;;;;;;;;5118361;28;20284;-73
2021/03/29 03:22:48;;;;;;;9.00;4.27;;;;;;;;;;5118154;28;20254;-73
2021/03/29 03:25:17;;;;;;;6.87;3.80;;;;;;;;;;5118301;28;20223;-73
2021/03/29 03:27:46;;;;;;;5.40;4.00;;;;;;;;;;5117717;28;20243;-73
2021/03/29 03:30:16;;;;;;;6.20;4.23;;;;;;;;;;5113428;28;20233;-73
2021/03/29 03:32:43;;;;;;;10.63;4.13;;;;;;;;;;5097775;28;20265;-73
2021/03/29 03:35:11;;;;;;;7.37;3.93;;;;;;;;;;5101546;28;20217;-73
2021/03/29 03:37:38;;;;;;;5.87;4.03;;;;;;;;;;5097588;28;20728;-73
2021/03/29 03:40:06;;;;;;;7.73;3.83;;;;;;;;;;5097559;28;20745;-73
2021/03/29 03:42:33;;;;;;;6.90;4.20;;;;;;;;;;5097482;28;20292;-73
2021/03/29 03:45:01;;;;;;;6.40;4.27;;;;;;;;;;5097578;28;20257;-73
2021/03/29 03:47:29;;;;;;;7.30;4.00;;;;;;;;;;5103406;28;20233;-73
2021/03/29 03:49:56;;;;;;;6.80;3.97;;;;;;;;;;5097626;28;20235;-73
2021/03/29 03:52:23;;;;;;;6.97;4.23;;;;;;;;;;5100816;28;20296;-73
2021/03/29 03:54:51;;;;;;;5.30;3.80;;;;;;;;;;5122124;28;20233;-73
2021/03/29 03:57:18;;;;;;;7.10;4.03;;;;;;;;;;5121383;28;20205;-74
2021/03/29 03:59:46;;;;;;;6.40;4.70;;;;;;;;;;5121794;28;20246;-73
2021/03/29 04:02:15;;;;;;;5.70;3.67;;;;;;;;;;5121918;28;20208;-73
2021/03/29 04:04:42;;;;;;;5.60;3.30;;;;;;;;;;5121857;28;20316;-74
2021/03/29 04:07:09;;;;;;;7.10;4.23;;;;;;;;;;5121853;28;20291;-76
2021/03/29 04:09:41;;;;;;;7.53;4.30;;;;;;;;;;5121764;28;20217;-76
2021/03/29 04:12:09;;;;;;;5.60;3.50;;;;;;;;;;5121246;28;20213;-75
2021/03/29 04:14:37;;;;;;;5.53;4.00;;;;;;;;;;5121551;28;20228;-75
2021/03/29 04:17:05;;;;;;;5.60;4.23;;;;;;;;;;5121737;28;20254;-75
2021/03/29 04:19:33;;;;;;;6.70;3.97;;;;;;;;;;5121661;28;20292;-75
2021/03/29 04:22:00;;;;;;;6.67;4.03;;;;;;;;;;5121262;28;20295;-74
2021/03/29 04:24:27;;;;;;;7.07;3.70;;;;;;;;;;5121481;28;20263;-75
2021/03/29 04:26:54;;;;;;;6.53;4.07;;;;;;;;;;5121125;28;20767;-75
2021/03/29 04:29:21;;;;;;;7.37;4.07;;;;;;;;;;5120779;28;20243;-75
2021/03/29 04:31:49;;;;;;;4.93;3.57;;;;;;;;;;5102278;28;20259;-76
2021/03/29 04:34:16;;;;;;;10.30;4.43;;;;;;;;;;5102320;28;20744;-76
2021/03/29 04:36:43;;;;;;;6.50;3.90;;;;;;;;;;5101111;28;20261;-75
2021/03/29 04:39:11;;;;;;;5.73;4.30;;;;;;;;;;5100625;28;20256;-74
2021/03/29 04:41:38;;;;;;;6.60;4.30;;;;;;;;;;5100301;28;20728;-75
2021/03/29 04:44:05;;;;;;;6.97;3.77;;;;;;;;;;5100466;28;20202;-75
2021/03/29 04:46:32;;;;;;;8.13;4.27;;;;;;;;;;5112263;28;20236;-76
2021/03/29 04:48:59;;;;;;;6.83;4.47;;;;;;;;;;5107420;28;20293;-75
2021/03/29 04:51:26;;;;;;;7.10;4.50;;;;;;;;;;5107330;28;20316;-77
2021/03/29 04:53:54;;;;;;;7.07;4.20;;;;;;;;;;5120910;28;20260;-74
2021/03/29 04:56:21;;;;;;;8.67;4.23;;;;;;;;;;5120831;28;20220;-75
2021/03/29 04:58:48;;;;;;;12.47;6.30;;;;;;;;;;5120616;28;20205;-77
2021/03/29 05:01:17;;;;;;;8.80;5.73;;;;;;;;;;5120849;28;20196;-76
2021/03/29 05:03:44;;;;;;;6.70;5.20;;;;;;;;;;5120414;28;20236;-76
2021/03/29 05:06:11;;;;;;;8.20;4.40;;;;;;;;;;5120405;28;20371;-76
2021/03/29 05:08:38;;;;;;;7.47;4.37;;;;;;;;;;5120407;28;20282;-76
2021/03/29 05:11:08;;;;;;;9.57;4.67;;;;;;;;;;5120211;28;20312;-77
2021/03/29 05:13:35;;;;;;;6.37;4.10;;;;;;;;;;5119941;28;20244;-78
2021/03/29 05:16:02;;;;;;;8.33;4.53;;;;;;;;;;5112681;28;20312;-77
2021/03/29 05:18:29;;;;;;;5.03;3.97;;;;;;;;;;5109127;28;20564;-79
2021/03/29 05:20:56;;;;;;;5.33;4.80;;;;;;;;;;5109846;28;20654;-80
2021/03/29 05:23:24;;;;;;;11.97;5.47;;;;;;;;;;5112279;28;20224;-79
2021/03/29 05:25:52;;;;;;;5.77;4.53;;;;;;;;;;5109622;28;20711;-78
2021/03/29 05:28:20;;;;;;;11.83;4.97;;;;;;;;;;5110989;28;20276;-80
2021/03/29 05:30:47;;;;;;;9.17;5.23;;;;;;;;;;5110046;28;20315;-80
2021/03/29 05:33:14;;;;;;;10.33;5.40;;;;;;;;;;5110614;28;20231;-80
2021/03/29 05:35:41;;;;;;;6.23;4.80;;;;;;;;;;5111177;28;20255;-78
2021/03/29 05:38:08;;;;;;;6.70;4.80;;;;;;;;;;5112288;28;20215;-79
2021/03/29 05:40:35;;;;;;;9.07;5.30;;;;;;;;;;5109793;28;20228;-77
2021/03/29 05:43:02;;;;;;;11.60;5.67;;;;;;;;;;5110959;28;20284;-79
2021/03/29 05:45:31;;;;;;;9.37;5.50;;;;;;;;;;5109839;28;20299;-78
2021/03/29 05:47:59;;;;;;;7.43;5.17;;;;;;;;;;5111027;28;20246;-79
2021/03/29 05:50:26;;;;;;;12.77;5.03;;;;;;;;;;5109072;28;20379;-79
2021/03/29 05:52:53;;;;;;;10.80;5.30;;;;;;;;;;5112436;28;20283;-79
2021/03/29 05:55:22;;;;;;;7.97;5.07;;;;;;;;;;5109933;27;20221;-79
2021/03/29 05:58:08;;;;;;;8.53;5.30;;;;;;;;;;5109565;28;20220;-81
2021/03/29 06:00:37;;;;;;;7.07;5.20;;;;;;;;;;5110060;28;20228;-77
2021/03/29 06:03:22;;;;;;;10.17;5.70;;;;;;;;;;5109779;28;20237;-78
2021/03/29 06:05:52;;;;;;;6.77;5.03;;;;;;;;;;5109438;28;20632;-78
2021/03/29 06:08:20;;;;;;;10.93;5.17;;;;;;;;;;5110002;28;20215;-78
2021/03/29 06:10:49;;;;;;;7.40;5.37;;;;;;;;;;5112287;28;20577;-77
2021/03/29 06:13:17;;;;;;;7.97;5.30;;;;;;;;;;5106825;28;20266;-78
2021/03/29 06:15:46;;;;;;;14.93;5.90;;;;;;;;;;5109475;28;20242;-78
2021/03/29 06:18:14;;;;;;;12.93;5.50;;;;;;;;;;5108624;28;20232;-79
2021/03/29 06:20:57;;;;;;;11.13;5.90;;;;;;;;;;5110619;28;20627;-78
2021/03/29 06:23:24;;;;;;;9.80;5.57;;;;;;;;;;5109575;28;20296;-77
2021/03/29 06:25:51;;;;;;;8.33;5.53;;;;;;;;;;5110092;28;20579;-78
2021/03/29 06:28:26;;;;;;;10.27;5.70;;;;;;;;;;5107223;28;20194;-77
2021/03/29 06:30:54;;;;;;;12.47;5.93;;;;;;;;;;5108932;28;20225;-77
2021/03/29 06:33:21;;;;;;;8.83;5.60;;;;;;;;;;5104863;28;20662;-76
2021/03/29 06:35:49;;;;;;;13.00;5.93;;;;;;;;;;5101443;28;20251;-77
2021/03/29 06:38:17;;;;;;;11.40;6.30;;;;;;;;;;5098494;28;20205;-76
2021/03/29 06:40:45;;;;;;;12.20;5.83;;;;;;;;;;5098249;28;20201;-77
2021/03/29 06:43:16;;;;;;;8.80;5.43;;;;;;;;;;5098043;28;20263;-78
2021/03/29 06:45:43;;;;;;;8.83;5.83;;;;;;;;;;5102678;28;20587;-77
2021/03/29 06:48:18;;;;;;;17.27;6.13;;;;;;;;;;5098426;28;20235;-77
2021/03/29 06:50:46;;;;;;;10.83;5.73;;;;;;;;;;5097631;28;20717;-75
2021/03/29 06:53:24;;;;;;;13.07;7.23;;;;;;;;;;5104902;28;20224;-77
2021/03/29 06:55:52;;;;;;;11.67;6.60;;;;;;;;;;5124377;27;20247;-73
2021/03/29 06:58:24;;;;;;;16.57;5.50;;;;;;;;;;5122639;27;20204;-79
2021/03/29 07:00:54;;;;;;;11.60;5.93;;;;;;;;;;5121654;27;20192;-72
2021/03/29 07:03:23;;;;;;;12.03;6.27;;;;;;;;;;5127767;27;20240;-76
2021/03/29 07:05:50;;;;;;;10.33;5.37;;;;;;;;;;5130807;27;20259;-76
2021/03/29 07:08:17;;;;;;;8.63;5.50;;;;;;;;;;5132370;27;20299;-76
2021/03/29 07:10:45;;;;;;;19.77;6.43;;;;;;;;;;5119911;27;20221;-76
2021/03/29 07:13:13;;;;;;;11.80;7.10;;;;;;;;;;5120301;28;20287;-75
2021/03/29 07:15:42;;;;;;;15.53;7.70;;;;;;;;;;5109684;27;20264;-77
2021/03/29 07:18:09;;;;;;;22.43;6.60;;;;;;;;;;5136706;27;20204;-77
2021/03/29 07:20:37;;;;;;;17.43;5.80;;;;;;;;;;5113832;27;20197;-77
2021/03/29 07:23:04;;;;;;;14.80;5.87;;;;;;;;;;5105146;28;20269;-77
2021/03/29 07:25:31;;;;;;;17.07;6.33;;;;;;;;;;5097181;28;20570;-77
2021/03/29 07:27:59;;;;;;;10.53;5.87;;;;;;;;;;5101004;28;20232;-77
2021/03/29 07:30:46;;;;;;;10.70;5.73;;;;;;;;;;5106450;28;20727;-77
2021/03/29 07:33:14;;;;;;;17.13;6.60;;;;;;;;;;5101434;28;20256;-77
2021/03/29 07:35:47;;;;;;;12.80;5.50;;;;;;;;;;5105011;28;20217;-77
2021/03/29 07:38:14;;;;;;;17.37;5.43;;;;;;;;;;5101226;28;20732;-78
2021/03/29 07:40:51;;;;;;;13.30;5.97;;;;;;;;;;5101380;28;20295;-77
2021/03/29 07:43:19;;;;;;;13.23;5.60;;;;;;;;;;5115753;28;20200;-77
2021/03/29 07:45:50;;;;;;;8.27;5.60;;;;;;;;;;5113349;28;20572;-78
2021/03/29 07:48:36;;;;;;;8.57;5.30;;;;;;;;;;5112306;28;20200;-78
2021/03/29 07:51:05;;;;;;;9.43;4.97;;;;;;;;;;5111831;28;20232;-77
2021/03/29 07:53:43;;;;;;;7.53;5.53;;;;;;;;;;5107564;28;20197;-77
2021/03/29 07:56:11;;;;;;;9.00;5.37;;;;;;;;;;5112313;28;20267;-77
2021/03/29 07:58:45;;;;;;;8.03;4.93;;;;;;;;;;5106149;28;20235;-78
2021/03/29 08:01:14;;;;;;;16.47;5.77;;;;;;;;;;5107991;28;20239;-78
2021/03/29 08:03:52;;;;;;;13.33;6.00;;;;;;;;;;5108380;28;20291;-77
2021/03/29 08:06:38;;;;;;;14.20;6.07;;;;;;;;;;5112399;28;20236;-79
2021/03/29 08:09:06;;;;;;;11.70;5.47;;;;;;;;;;5111674;28;20201;-79
2021/03/29 08:12:07;;;;;;;8.03;5.67;;;;;;;;;;5113490;28;20224;-80
2021/03/29 08:14:36;;;;;;;12.63;5.63;;;;;;;;;;5113945;28;20223;-76
2021/03/29 08:17:22;;;;;;;12.03;5.87;;;;;;;;;;5121188;28;20236;-77
2021/03/29 08:20:04;;;;;;;13.40;6.30;;;;;;;;;;5121015;28;20232;-78
2021/03/29 08:22:31;;;;;;;8.60;6.50;;;;;;;;;;5120976;28;20243;-77
2021/03/29 08:24:59;;;;;;;12.00;6.87;;;;;;;;;;5120704;28;20315;-75
2021/03/29 08:27:30;;;;;;;8.47;5.70;;;;;;;;;;5120490;28;20257;-75
2021/03/29 08:30:09;;;;;;;8.33;4.93;;;;;;;;;;5120546;28;20247;-73
2021/03/29 08:32:37;;;;;;;7.63;4.30;;;;;;;;;;5101798;27;20201;-75
2021/03/29 08:35:05;;;;;;;7.43;3.90;;;;;;;;;;5108761;28;20288;-77
2021/03/29 08:37:34;;;;;;;4.83;3.60;;;;;;;;;;5100643;28;20208;-76
2021/03/29 08:40:05;;;;;;;9.03;4.03;;;;;;;;;;5100052;28;20210;-75
2021/03/29 08:42:33;;;;;;;8.63;3.57;;;;;;;;;;5106609;28;20239;-76
2021/03/29 08:45:00;;;;;;;7.63;4.47;;;;;;;;;;5120308;28;20270;-75
2021/03/29 08:47:28;;;;;;;6.70;4.07;;;;;;;;;;5116309;28;21008;-76
2021/03/29 08:49:56;;;;;;;8.33;3.73;;;;;;;;;;5110241;28;20270;-76
2021/03/29 08:52:23;;;;;;;6.57;4.10;;;;;;;;;;5105046;28;20264;-76
2021/03/29 08:54:51;;;;;;;9.13;3.97;;;;;;;;;;5116917;28;20252;-78
2021/03/29 08:57:21;;;;;;;10.97;4.97;;;;;;;;;;5110726;28;20202;-76
2021/03/29 08:59:51;;;;;;;8.00;4.70;;;;;;;;;;5110896;28;20205;-77
2021/03/29 09:02:18;;;;;;;5.17;3.33;;;;;;;;;;5110630;28;20200;-77
2021/03/29 09:04:52;;;;;;;5.30;3.93;;;;;;;;;;5110256;28;20304;-75
2021/03/29 09:07:20;;;;;;;6.37;3.93;;;;;;;;;;5113150;28;20227;-75
2021/03/29 09:09:47;;;;;;;10.57;3.90;;;;;;;;;;5114800;28;20445;-76
2021/03/29 09:12:22;;;;;;;6.03;3.70;;;;;;;;;;5112928;28;20593;-76
2021/03/29 09:14:50;;;;;;;8.20;4.20;;;;;;;;;;5099775;28;20311;-75
2021/03/29 09:17:24;;;;;;;7.03;4.27;;;;;;;;;;5099532;28;20292;-75
2021/03/29 09:19:51;;;;;;;8.60;4.50;;;;;;;;;;5099590;28;20296;-75
2021/03/29 09:22:33;;;;;;;10.30;4.20;;;;;;;;;;5099265;28;20616;-75
2021/03/29 09:25:00;;;;;;;7.00;4.67;;;;;;;;;;5097487;28;20309;-75
2021/03/29 09:27:33;;;;;;;8.73;4.03;;;;;;;;;;5098908;28;20641;-75
2021/03/29 09:30:00;;;;;;;6.70;3.90;;;;;;;;;;5108159;28;20266;-77
2021/03/29 09:32:30;;;;;;;8.20;3.43;;;;;;;;;;5112443;28;20270;-76
2021/03/29 09:34:57;;;;;;;6.47;3.47;;;;;;;;;;5111971;28;20299;-76
2021/03/29 09:37:25;;;;;;;4.90;2.97;;;;;;;;;;5116843;28;20235;-75
2021/03/29 09:39:56;;;;;;;4.30;2.93;;;;;;;;;;5119168;28;20284;-75
2021/03/29 09:42:35;;;;;;;9.50;2.90;;;;;;;;;;5119032;28;20223;-76
2021/03/29 09:45:03;;;;;;;4.67;2.83;;;;;;;;;;5119520;28;20315;-76
2021/03/29 09:47:30;;;;;;;4.83;3.13;;;;;;;;;;5102900;28;20574;-75
2021/03/29 09:49:57;;;;;;;6.03;3.33;;;;;;;;;;5117617;28;20227;-75
2021/03/29 09:52:33;;;;;;;5.30;3.53;;;;;;;;;;5116599;28;20257;-76
2021/03/29 09:55:00;;;;;;;8.50;3.10;;;;;;;;;;5118940;28;20269;-75
2021/03/29 09:57:28;;;;;;;5.50;2.43;;;;;;;;;;5100257;28;20316;-76
2021/03/29 09:59:56;;;;;;;5.93;2.83;;;;;;;;;;5098785;28;20248;-75
2021/03/29 10:02:24;;;;;;;5.77;2.47;;;;;;;;;;5098246;28;20288;-75
2021/03/29 10:04:59;;;;;;;4.93;2.63;;;;;;;;;;5098662;28;20222;-76
2021/03/29 10:07:26;;;;;;;3.80;2.60;;;;;;;;;;5105420;28;20272;-76
2021/03/29 10:09:58;;;;;;;4.70;2.60;;;;;;;;;;5118563;28;20215;-75
2021/03/29 10:12:26;;;;;;;2.97;2.47;;;;;;;;;;5118126;28;20311;-76
2021/03/29 10:15:04;;;;;;;3.80;2.50;;;;;;;;;;5118454;28;20288;-76
2021/03/29 10:17:31;;;;;;;4.47;2.50;;;;;;;;;;5118617;28;20611;-76
2021/03/29 10:20:05;;;;;;;3.00;2.67;;;;;;;;;;5118712;28;20228;-75
2021/03/29 10:22:33;;;;;;;5.63;2.77;;;;;;;;;;5118434;28;20611;-75
2021/03/29 10:25:01;;;;;;;5.90;2.60;;;;;;;;;;5118372;28;20278;-75
2021/03/29 10:27:42;;;;;;;4.50;2.33;;;;;;;;;;5118068;28;20204;-75
2021/03/29 10:30:11;;;;;;;4.47;2.63;;;;;;;;;;5118113;28;20240;-75
2021/03/29 10:32:38;;;;;;;3.83;2.37;;;;;;;;;;5097618;28;20327;-75
2021/03/29 10:35:05;;;;;;;4.93;2.13;;;;;;;;;;5105077;28;20567;-75
2021/03/29 10:37:33;;;;;;;6.47;3.00;;;;;;;;;;5098078;28;20290;-75
2021/03/29 10:40:01;;;;;;;4.57;2.83;;;;;;;;;;5097975;28;20201;-75
2021/03/29 10:42:31;;;;;;;4.20;2.80;;;;;;;;;;5097755;28;20688;-73
2021/03/29 10:44:58;;;;;;;5.87;2.70;;;;;;;;;;5108458;28;20225;-73
2021/03/29 10:47:26;;;;;;;5.23;2.77;;;;;;;;;;5108824;28;20285;-74
2021/03/29 10:49:53;;;;;;;6.70;2.33;;;;;;;;;;5105861;28;20252;-74
2021/03/29 10:52:21;;;;;;;5.13;2.30;;;;;;;;;;5105541;28;20307;-74
2021/03/29 10:54:48;;;;;;;3.03;2.53;;;;;;;;;;5114417;28;20759;-75
2021/03/29 10:57:15;;;;;;;6.57;2.70;;;;;;;;;;5097215;28;20635;-74
2021/03/29 10:59:42;;;;;;;3.97;2.37;;;;;;;;;;5097181;28;20243;-74
2021/03/29 11:02:10;;;;;;;3.50;2.77;;;;;;;;;;5097354;28;20284;-74
2021/03/29 11:04:38;;;;;;;4.37;2.60;;;;;;;;;;5097277;28;20654;-74
2021/03/29 11:07:05;;;;;;;5.63;2.83;;;;;;;;;;5097297;28;20700;-74
2021/03/29 11:09:32;;;;;;;3.80;2.33;;;;;;;;;;5097410;28;20205;-74
2021/03/29 11:11:59;;;;;;;4.33;2.33;;;;;;;;;;5096904;28;20257;-74
2021/03/29 11:14:26;;;;;;;5.27;2.37;;;;;;;;;;5097565;28;20268;-73
2021/03/29 11:16:55;;;;;;;2.30;2.10;;;;;;;;;;5106443;28;20652;-75
2021/03/29 11:19:22;;;;;;;3.47;2.30;;;;;;;;;;5100861;28;20241;-75
2021/03/29 11:21:51;;;;;;;5.63;2.80;;;;;;;;;;5097247;28;20304;-76
2021/03/29 11:24:18;;;;;;;4.37;2.33;;;;;;;;;;5097289;28;20228;-74
2021/03/29 11:26:45;;;;;;;4.60;2.60;;;;;;;;;;5097077;28;20724;-74
2021/03/29 11:29:12;;;;;;;4.37;2.13;;;;;;;;;;5098217;28;20329;-75
2021/03/29 11:31:42;;;;;;;5.27;2.27;;;;;;;;;;5106257;28;20392;-77
2021/03/29 11:34:09;;;;;;;3.87;1.93;;;;;;;;;;5097600;28;20233;-74
2021/03/29 11:36:36;;;;;;;3.87;2.53;;;;;;;;;;5105455;28;20664;-74
2021/03/29 11:39:05;;;;;;;3.80;2.00;;;;;;;;;;5096901;28;20300;-75
2021/03/29 11:41:32;;;;;;;3.17;2.10;;;;;;;;;;5096947;28;20305;-74
2021/03/29 11:43:59;;;;;;;5.97;2.30;;;;;;;;;;5096719;28;20293;-75
2021/03/29 11:46:26;;;;;;;3.43;1.80;;;;;;;;;;5107837;28;20243;-74
2021/03/29 11:48:53;;;;;;;2.63;2.00;;;;;;;;;;5097767;28;20209;-73
2021/03/29 11:51:21;;;;;;;5.13;2.13;;;;;;;;;;5096841;28;20704;-74
2021/03/29 11:53:48;;;;;;;3.43;1.90;;;;;;;;;;5104439;28;20216;-74
2021/03/29 11:56:16;;;;;;;2.60;2.10;;;;;;;;;;5097066;28;20225;-75
2021/03/29 11:58:46;;;;;;;16.27;6.43;;;;;;;;;;5102208;28;20265;-75
2021/03/29 12:01:18;;;;;;;3.93;1.90;;;;;;;;;;5108864;28;20226;-75
2021/03/29 12:03:48;;;;;;;5.33;2.10;;;;;;;;;;5108568;28;20284;-76
2021/03/29 12:06:19;;;;;;;5.10;2.30;;;;;;;;;;5109671;28;20232;-74
2021/03/29 12:08:50;;;;;;;9.13;2.17;;;;;;;;;;5109421;28;20205;-79
2021/03/29 12:14:03;;;;;;;4.13;1.97;;;;;;;;;;5112466;28;20204;-75
2021/03/29 12:16:38;;;;;;;4.47;2.20;;;;;;;;;;5110533;28;20212;-74
2021/03/29 12:19:05;;;;;;;2.60;2.20;;;;;;;;;;5101234;28;20288;-76
2021/03/29 12:21:34;;;;;;;3.43;2.53;;;;;;;;;;5100459;28;20202;-77
2021/03/29 12:24:03;;;;;;;4.03;2.00;;;;;;;;;;5100794;28;20201;-77
2021/03/29 12:26:31;;;;;;;4.83;1.87;;;;;;;;;;5100746;28;20304;-77
2021/03/29 12:28:59;;;;;;;2.87;2.13;;;;;;;;;;5100213;28;20304;-77
2021/03/29 12:31:27;;;;;;;2.33;1.70;;;;;;;;;;5110594;28;20308;-77
2021/03/29 12:33:56;;;;;;;3.53;1.90;;;;;;;;;;5100401;28;20241;-77
2021/03/29 12:36:29;;;;;;;5.47;2.07;;;;;;;;;;5109567;28;20205;-77
2021/03/29 12:39:00;;;;;;;4.00;2.03;;;;;;;;;;5100614;28;20205;-77
2021/03/29 12:41:30;;;;;;;2.80;1.87;;;;;;;;;;5100389;28;20609;-77
2021/03/29 12:44:01;;;;;;;2.47;2.03;;;;;;;;;;5100047;28;20785;-76
2021/03/29 12:46:28;;;;;;;5.87;2.20;;;;;;;;;;5111199;28;20316;-75
2021/03/29 12:48:55;;;;;;;3.63;1.83;;;;;;;;;;5100639;28;20731;-76
2021/03/29 12:51:23;;;;;;;4.47;2.10;;;;;;;;;;5100200;28;20263;-75
2021/03/29 12:53:50;;;;;;;3.47;2.10;;;;;;;;;;5113250;28;20205;-76
2021/03/29 12:56:17;;;;;;;6.30;1.97;;;;;;;;;;5120264;28;20777;-77
2021/03/29 12:58:44;;;;;;;3.00;2.17;;;;;;;;;;5120454;28;20272;-76
2021/03/29 13:01:13;;;;;;;2.93;1.80;;;;;;;;;;5120509;28;20229;-77
2021/03/29 13:03:42;;;;;;;5.00;1.97;;;;;;;;;;5120538;28;20264;-77
2021/03/29 13:06:13;;;;;;;2.63;1.80;;;;;;;;;;5120469;28;20232;-74
2021/03/29 13:08:40;;;;;;;3.60;1.70;;;;;;;;;;5120226;28;20204;-77
2021/03/29 13:11:20;;;;;;;2.10;1.77;;;;;;;;;;5120002;28;20225;-77
2021/03/29 13:13:48;;;;;;;2.37;1.57;;;;;;;;;;5120230;28;20268;-76
2021/03/29 13:16:16;;;;;;;2.13;1.63;;;;;;;;;;5120340;28;20260;-74
2021/03/29 13:18:44;;;;;;;2.43;1.63;;;;;;;;;;5120374;28;20232;-77
2021/03/29 13:21:11;;;;;;;2.67;1.60;;;;;;;;;;5120557;28;20683;-74
2021/03/29 13:23:38;;;;;;;2.00;1.80;;;;;;;;;;5120047;28;20291;-77
2021/03/29 13:26:05;;;;;;;3.70;1.67;;;;;;;;;;5120153;28;20266;-77
2021/03/29 13:28:32;;;;;;;2.47;1.90;;;;;;;;;;5119563;28;20211;-77
2021/03/29 13:30:59;;;;;;;5.53;1.90;;;;;;;;;;5107930;28;20242;-76
2021/03/29 13:33:27;;;;;;;5.77;1.73;;;;;;;;;;5103088;28;20639;-74
2021/03/29 13:35:54;;;;;;;5.50;1.77;;;;;;;;;;5101905;28;20282;-77
2021/03/29 13:38:21;;;;;;;4.13;1.80;;;;;;;;;;5098484;28;20288;-74
2021/03/29 13:40:49;;;;;;;11.80;6.57;;;;;;;;;;5099496;28;20624;-77
2021/03/29 13:43:17;;;;;;;3.20;1.77;;;;;;;;;;5104481;28;20201;-73
2021/03/29 13:45:44;;;;;;;2.40;1.70;;;;;;;;;;5112461;28;20217;-75
2021/03/29 13:48:11;;;;;;;2.20;1.50;;;;;;;;;;5105818;28;20288;-75
2021/03/29 13:50:39;;;;;;;4.67;1.90;;;;;;;;;;5099414;28;20210;-75
2021/03/29 13:53:08;;;;;;;2.57;1.40;;;;;;;;;;5106573;28;20307;-76
2021/03/29 13:55:35;;;;;;;3.13;2.13;;;;;;;;;;5119929;28;20780;-75
2021/03/29 13:58:02;;;;;;;2.57;1.50;;;;;;;;;;5119499;28;20211;-75
2021/03/29 14:00:30;;;;;;;2.50;1.70;;;;;;;;;;5119386;28;20204;-75
2021/03/29 14:03:00;;;;;;;5.57;1.80;;;;;;;;;;5119784;28;20234;-74
2021/03/29 14:05:28;;;;;;;2.93;1.50;;;;;;;;;;5119116;28;20220;-75
2021/03/29 14:07:56;;;;;;;3.50;1.57;;;;;;;;;;5112667;28;20197;-78
2021/03/29 14:10:24;;;;;;;7.47;2.27;;;;;;;;;;5110383;28;20727;-75
2021/03/29 14:12:56;;;;;;;5.60;1.80;;;;;;;;;;5109550;28;20220;-76
2021/03/29 14:15:23;;;;;;;3.17;1.97;;;;;;;;;;5109602;28;20216;-78
2021/03/29 14:17:51;;;;;;;2.70;1.90;;;;;;;;;;5112453;28;20627;-77
2021/03/29 14:20:18;;;;;;;1.80;1.40;;;;;;;;;;5109973;28;20226;-75
2021/03/29 14:22:45;;;;;;;2.77;1.97;;;;;;;;;;5112834;28;20272;-76
2021/03/29 14:25:14;;;;;;;3.23;1.60;;;;;;;;;;5113242;28;20220;-75
2021/03/29 14:27:42;;;;;;;3.20;1.63;;;;;;;;;;5109570;28;20206;-78
2021/03/29 14:30:09;;;;;;;2.40;1.60;;;;;;;;;;5110413;28;20300;-77
2021/03/29 14:32:37;;;;;;;3.90;1.67;;;;;;;;;;5109863;28;20241;-77
2021/03/29 14:35:08;;;;;;;3.77;1.40;;;;;;;;;;5109804;28;20573;-77
2021/03/29 14:40:27;;;;;;;2.30;1.40;;;;;;;;;;5108211;28;20643;-77
2021/03/29 14:43:00;;;;;;;3.27;1.60;;;;;;;;;;5110182;28;20285;-78
2021/03/29 14:45:27;;;;;;;1.73;1.50;;;;;;;;;;5100358;28;20629;-77
2021/03/29 14:47:54;;;;;;;5.93;2.37;;;;;;;;;;5098433;28;20236;-77
2021/03/29 14:50:21;;;;;;;2.00;1.53;;;;;;;;;;5112049;28;20211;-77
2021/03/29 14:52:48;;;;;;;2.37;1.40;;;;;;;;;;5102504;28;20216;-77
2021/03/29 14:55:17;;;;;;;2.80;1.60;;;;;;;;;;5118315;28;20224;-75